createdAt,value
2019-04-29T00:03:17.002Z,11.21
2019-04-29T00:05:47.360Z,11.18
2019-04-29T00:08:17.753Z,11.20
2019-04-29T00:10:48.113Z,11.14
2019-04-29T00:13:18.582Z,11.18
2019-04-29T00:16:07.803Z,11.15
2019-04-29T00:18:57.038Z,11.19
2019-04-29T00:21:46.993Z,11.14
2019-04-29T00:24:37.171Z,11.00
2019-04-29T00:27:26.947Z,11.05
2019-04-29T00:33:03.598Z,11.05
2019-04-29T00:35:53.361Z,11.06
2019-04-29T00:39:02.022Z,11.00
2019-04-29T00:41:51.284Z,10.93
2019-04-29T00:44:21.767Z,11.03
2019-04-29T00:46:52.109Z,11.04
2019-04-29T00:49:22.479Z,11.05
2019-04-29T00:51:52.874Z,11.03
2019-04-29T00:57:25.106Z,11.06
2019-04-29T00:59:55.506Z,11.07
2019-04-29T01:02:45.331Z,11.02
2019-04-29T01:05:35.297Z,10.97
2019-04-29T01:08:05.867Z,10.91
2019-04-29T01:10:55.782Z,10.90
2019-04-29T01:13:26.141Z,10.95
2019-04-29T01:15:56.496Z,10.86
2019-04-29T01:18:26.911Z,10.85
2019-04-29T01:20:57.289Z,10.86
2019-04-29T01:23:47.084Z,10.90
2019-04-29T01:26:55.713Z,10.84
2019-04-29T01:29:45.482Z,10.79
2019-04-29T01:32:35.269Z,10.73
2019-04-29T01:35:25.091Z,10.64
2019-04-29T01:38:14.862Z,10.65
2019-04-29T01:41:04.101Z,10.68
2019-04-29T01:44:12.751Z,10.69
2019-04-29T01:47:02.547Z,10.54
2019-04-29T01:49:52.314Z,10.52
2019-04-29T01:52:42.356Z,10.48
2019-04-29T01:55:32.169Z,10.57
2019-04-29T01:58:21.952Z,10.46
2019-04-29T02:00:52.320Z,10.37
2019-04-29T02:03:42.140Z,10.38
2019-04-29T02:06:31.903Z,10.39
2019-04-29T02:09:02.274Z,10.30
2019-04-29T02:11:32.609Z,10.30
2019-04-29T02:14:22.382Z,10.25
2019-04-29T02:16:52.718Z,10.20
2019-04-29T02:19:42.486Z,10.27
2019-04-29T02:22:31.763Z,10.14
2019-04-29T02:25:21.014Z,10.09
2019-04-29T02:27:51.381Z,10.08
2019-04-29T02:33:43.656Z,10.07
2019-04-29T02:36:14.005Z,10.07
2019-04-29T02:42:25.209Z,9.96
2019-04-29T02:47:39.232Z,10.00
2019-04-29T02:53:12.998Z,9.76
2019-04-29T02:56:02.837Z,9.71
2019-04-29T02:58:52.145Z,9.68
2019-04-29T03:02:00.787Z,9.63
2019-04-29T03:05:09.442Z,9.50
2019-04-29T03:07:39.811Z,9.49
2019-04-29T03:10:29.582Z,9.58
2019-04-29T03:13:19.327Z,9.50
2019-04-29T03:16:09.262Z,9.48
2019-04-29T03:21:30.179Z,9.34
2019-04-29T03:24:00.629Z,9.42
2019-04-29T03:29:32.947Z,9.39
2019-04-29T03:32:03.397Z,9.33
2019-04-29T03:34:33.744Z,9.36
2019-04-29T03:37:04.106Z,9.41
2019-04-29T03:39:34.426Z,9.30
2019-04-29T03:42:07.225Z,9.17
2019-04-29T03:44:56.243Z,9.15
2019-04-29T03:47:46.003Z,9.26
2019-04-29T03:50:16.352Z,9.26
2019-04-29T03:52:46.729Z,9.34
2019-04-29T03:55:17.069Z,9.25
2019-04-29T03:57:47.442Z,9.28
2019-04-29T04:00:37.174Z,9.32
2019-04-29T04:03:26.523Z,9.37
2019-04-29T04:06:15.853Z,9.40
2019-04-29T04:09:25.852Z,9.35
2019-04-29T04:11:56.208Z,9.37
2019-04-29T04:14:45.979Z,9.33
2019-04-29T04:20:07.567Z,9.39
2019-04-29T04:22:56.887Z,9.27
2019-04-29T04:25:27.261Z,9.33
2019-04-29T04:28:17.047Z,9.25
2019-04-29T04:30:47.420Z,9.30
2019-04-29T04:33:37.202Z,9.39
2019-04-29T04:36:26.921Z,9.33
2019-04-29T04:39:16.663Z,9.34
2019-04-29T04:41:47.039Z,9.37
2019-04-29T04:44:55.659Z,9.32
2019-04-29T04:47:26.039Z,9.26
2019-04-29T04:50:15.778Z,9.25
2019-04-29T04:53:05.546Z,9.39
2019-04-29T04:59:00.310Z,9.27
2019-04-29T05:01:50.057Z,9.26
2019-04-29T05:04:39.814Z,9.24
2019-04-29T05:07:29.582Z,9.30
2019-04-29T05:10:19.339Z,9.28
2019-04-29T05:13:09.129Z,9.23
2019-04-29T05:15:58.925Z,9.28
2019-04-29T05:18:48.754Z,9.27
2019-04-29T05:21:19.285Z,9.20
2019-04-29T05:23:49.662Z,9.20
2019-04-29T05:26:39.430Z,9.20
2019-04-29T05:29:29.188Z,9.16
2019-04-29T05:31:59.548Z,9.08
2019-04-29T05:40:36.284Z,9.36
2019-04-29T05:48:38.914Z,9.48
2019-04-29T05:51:47.559Z,9.50
2019-04-29T05:54:37.354Z,9.54
2019-04-29T05:57:27.133Z,9.48
2019-04-29T06:03:00.612Z,9.71
2019-04-29T06:05:50.216Z,9.72
2019-04-29T06:08:20.671Z,9.69
2019-04-29T06:11:10.488Z,9.66
2019-04-29T06:14:00.410Z,9.75
2019-04-29T06:16:30.753Z,9.71
2019-04-29T06:19:20.533Z,9.89
2019-04-29T06:21:50.934Z,9.83
2019-04-29T06:24:21.393Z,9.92
2019-04-29T06:26:51.771Z,9.73
2019-04-29T06:29:22.309Z,9.78
2019-04-29T06:32:12.073Z,9.74
2019-04-29T06:34:42.582Z,9.84
2019-04-29T06:37:12.932Z,9.87
2019-04-29T06:40:02.792Z,9.92
2019-04-29T06:42:33.619Z,9.89
2019-04-29T06:45:17.963Z,9.74
2019-04-29T06:47:48.496Z,9.69
2019-04-29T06:50:38.283Z,9.52
2019-04-29T06:53:08.739Z,9.72
2019-04-29T06:55:40.147Z,9.85
2019-04-29T06:58:10.579Z,10.04
2019-04-29T07:00:40.940Z,9.93
2019-04-29T07:03:11.468Z,10.07
2019-04-29T07:06:01.226Z,10.00
2019-04-29T07:08:31.682Z,10.04
2019-04-29T07:11:03.063Z,10.08
2019-04-29T07:13:46.680Z,10.22
2019-04-29T07:16:31.944Z,10.08
2019-04-29T07:19:11.523Z,9.95
2019-04-29T07:21:46.831Z,10.03
2019-04-29T07:24:25.442Z,9.96
2019-04-29T07:26:57.917Z,9.90
2019-04-29T07:29:47.319Z,9.89
2019-04-29T07:32:37.087Z,9.74
2019-04-29T07:35:26.866Z,9.69
2019-04-29T07:37:57.349Z,9.75
2019-04-29T07:40:27.794Z,9.52
2019-04-29T07:43:17.578Z,9.42
2019-04-29T07:49:05.798Z,9.19
2019-04-29T07:51:47.571Z,9.21
2019-04-29T07:54:37.408Z,9.13
2019-04-29T07:57:28.191Z,9.21
2019-04-29T08:03:20.617Z,9.40
2019-04-29T08:09:13.524Z,9.41
2019-04-29T08:12:03.401Z,9.37
2019-04-29T08:18:05.862Z,9.42
2019-04-29T08:20:41.416Z,9.37
2019-04-29T08:23:23.268Z,9.25
2019-04-29T08:25:57.348Z,9.11
2019-04-29T08:28:31.241Z,9.15
2019-04-29T08:31:01.657Z,9.17
2019-04-29T08:33:32.017Z,9.18
2019-04-29T08:36:02.378Z,9.05
2019-04-29T08:38:32.799Z,9.05
2019-04-29T08:41:03.189Z,8.98
2019-04-29T08:44:16.390Z,8.99
2019-04-29T08:47:13.693Z,9.24
2019-04-29T08:50:03.557Z,9.31
2019-04-29T08:52:33.955Z,9.57
2019-04-29T08:55:04.376Z,9.75
2019-04-29T08:57:36.473Z,9.73
2019-04-29T09:00:57.653Z,9.89
2019-04-29T09:03:40.439Z,10.11
2019-04-29T09:06:57.029Z,10.18
2019-04-29T09:09:48.493Z,10.26
2019-04-29T09:12:29.854Z,10.36
2019-04-29T09:15:19.781Z,10.35
2019-04-29T09:17:50.203Z,10.31
2019-04-29T09:20:20.665Z,10.48
2019-04-29T09:26:09.953Z,10.62
2019-04-29T09:31:43.298Z,10.67
2019-04-29T09:34:13.749Z,10.73
2019-04-29T09:36:48.345Z,10.83
2019-04-29T09:39:41.894Z,10.95
2019-04-29T09:42:31.136Z,10.93
2019-04-29T09:45:24.305Z,11.20
2019-04-29T09:47:58.176Z,11.20
2019-04-29T09:50:28.704Z,11.31
2019-04-29T09:52:59.131Z,11.14
2019-04-29T09:55:51.201Z,11.06
2019-04-29T09:58:21.623Z,11.31
2019-04-29T10:01:13.853Z,11.32
2019-04-29T10:06:40.929Z,12.02
2019-04-29T10:12:13.433Z,11.32
2019-04-29T10:14:43.830Z,10.79
2019-04-29T10:17:33.081Z,11.08
2019-04-29T10:20:29.004Z,11.33
2019-04-29T10:23:18.815Z,11.33
2019-04-29T10:31:50.745Z,11.59
2019-04-29T10:34:21.223Z,11.35
2019-04-29T10:36:52.552Z,11.39
2019-04-29T10:39:54.234Z,11.14
2019-04-29T10:42:43.881Z,11.17
2019-04-29T10:48:27.998Z,10.64
2019-04-29T10:51:17.853Z,10.51
2019-04-29T10:54:07.697Z,10.72
2019-04-29T10:56:39.319Z,10.97
2019-04-29T10:59:15.629Z,10.88
2019-04-29T11:02:44.734Z,10.87
2019-04-29T11:05:44.549Z,11.18
2019-04-29T11:11:32.987Z,11.49
2019-04-29T11:14:24.762Z,11.27
2019-04-29T11:17:05.763Z,11.35
2019-04-29T11:19:40.037Z,11.44
2019-04-29T11:31:14.407Z,11.12
2019-04-29T11:34:17.970Z,10.85
2019-04-29T11:36:53.980Z,11.29
2019-04-29T11:39:24.392Z,11.43
2019-04-29T11:42:14.264Z,11.03
2019-04-29T11:44:44.635Z,10.96
2019-04-29T11:47:34.506Z,11.28
2019-04-29T11:53:01.666Z,11.47
2019-04-29T11:55:52.565Z,11.15
2019-04-29T12:01:47.194Z,11.82
2019-04-29T12:04:42.095Z,11.67
2019-04-29T12:13:41.217Z,11.28
2019-04-29T12:16:49.863Z,11.08
2019-04-29T12:19:39.151Z,11.08
2019-04-29T12:22:30.933Z,10.90
2019-04-29T12:25:12.172Z,11.00
2019-04-29T12:28:12.371Z,11.11
2019-04-29T12:33:36.967Z,10.89
2019-04-29T12:36:16.288Z,11.04
2019-04-29T12:39:14.936Z,10.86
2019-04-29T12:42:05.651Z,10.77
2019-04-29T12:45:00.694Z,10.65
2019-04-29T12:47:32.803Z,10.66
2019-04-29T12:50:03.295Z,10.67
2019-04-29T12:52:33.722Z,10.81
2019-04-29T12:58:11.816Z,11.22
2019-04-29T13:04:03.223Z,11.07
2019-04-29T13:06:52.658Z,11.10
2019-04-29T13:12:19.667Z,11.18
2019-04-29T13:15:12.676Z,11.35
2019-04-29T13:18:13.037Z,10.84
2019-04-29T13:20:45.960Z,10.74
2019-04-29T13:23:34.763Z,11.03
2019-04-29T13:26:11.454Z,11.14
2019-04-29T13:28:59.127Z,11.14
2019-04-29T13:31:38.446Z,11.12
2019-04-29T13:37:12.199Z,11.19
2019-04-29T13:39:47.264Z,11.12
2019-04-29T13:42:38.005Z,11.13
2019-04-29T13:51:35.882Z,11.00
2019-04-29T13:54:10.612Z,10.88
2019-04-29T13:56:55.616Z,10.84
2019-04-29T13:59:51.335Z,10.82
2019-04-29T14:05:48.341Z,10.65
2019-04-29T14:08:18.803Z,10.67
2019-04-29T14:10:51.203Z,10.55
2019-04-29T14:13:32.315Z,10.57
2019-04-29T14:18:52.089Z,10.61
2019-04-29T14:21:25.822Z,10.55
2019-04-29T14:24:14.085Z,10.62
2019-04-29T14:26:47.758Z,10.50
2019-04-29T14:29:36.043Z,10.64
2019-04-29T14:37:55.286Z,10.40
2019-04-29T14:40:33.297Z,10.50
2019-04-29T14:43:27.310Z,10.47
2019-04-29T14:46:26.031Z,10.49
2019-04-29T14:49:15.352Z,10.50
2019-04-29T14:51:46.028Z,10.60
2019-04-29T14:54:16.557Z,10.54
2019-04-29T14:56:47.083Z,10.46
2019-04-29T14:59:17.844Z,10.41
2019-04-29T15:04:55.081Z,10.64
2019-04-29T15:10:22.543Z,10.81
2019-04-29T15:13:21.049Z,10.73
2019-04-29T15:16:09.623Z,10.77
2019-04-29T15:19:12.767Z,10.74
2019-04-29T15:22:02.462Z,10.66
2019-04-29T15:24:34.154Z,10.56
2019-04-29T15:27:16.523Z,10.64
2019-04-29T15:29:46.910Z,10.68
2019-04-29T15:32:17.951Z,10.69
2019-04-29T15:35:00.261Z,10.52
2019-04-29T15:37:30.668Z,10.71
2019-04-29T15:40:01.331Z,10.55
2019-04-29T15:42:49.139Z,10.70
2019-04-29T15:45:28.061Z,10.96
2019-04-29T15:48:10.539Z,11.05
2019-04-29T15:50:40.899Z,11.11
2019-04-29T15:53:33.906Z,10.96
2019-04-29T15:58:53.573Z,10.85
2019-04-29T16:01:27.909Z,10.91
2019-04-29T16:07:23.044Z,10.77
2019-04-29T16:10:14.369Z,10.79
2019-04-29T16:15:35.424Z,10.56
2019-04-29T16:18:25.205Z,10.59
2019-04-29T16:20:55.603Z,10.49
2019-04-29T16:23:45.367Z,10.40
2019-04-29T16:26:15.901Z,10.49
2019-04-29T16:28:46.405Z,10.42
2019-04-29T16:31:16.935Z,10.40
2019-04-29T16:33:54.656Z,10.32
2019-04-29T16:36:32.833Z,10.25
2019-04-29T16:45:06.154Z,10.27
2019-04-29T16:47:47.454Z,10.22
2019-04-29T16:50:28.509Z,10.28
2019-04-29T16:52:59.107Z,10.38
2019-04-29T16:55:29.525Z,10.31
2019-04-29T16:58:07.638Z,10.25
2019-04-29T17:00:46.533Z,10.28
2019-04-29T17:03:22.550Z,10.28
2019-04-29T17:05:53.087Z,10.28
2019-04-29T17:14:10.064Z,10.26
2019-04-29T17:16:51.058Z,10.29
2019-04-29T17:19:21.521Z,10.23
2019-04-29T17:21:51.950Z,10.19
2019-04-29T17:24:22.374Z,10.22
2019-04-29T17:27:11.653Z,10.29
2019-04-29T17:30:03.517Z,10.28
2019-04-29T17:35:19.072Z,10.90
2019-04-29T17:35:50.025Z,10.22
2019-04-29T17:38:20.547Z,10.19
2019-04-29T17:40:51.534Z,10.26
2019-04-29T17:43:47.341Z,10.20
2019-04-29T17:49:41.527Z,10.21
2019-04-29T17:55:37.203Z,10.04
2019-04-29T18:01:46.545Z,10.02
2019-04-29T18:07:52.852Z,10.00
2019-04-29T18:10:29.830Z,9.92
2019-04-29T18:13:00.312Z,9.97
2019-04-29T18:18:53.201Z,9.95
2019-04-29T18:21:47.225Z,9.86
2019-04-29T18:24:40.513Z,9.90
2019-04-29T18:27:15.288Z,9.92
2019-04-29T18:29:45.907Z,9.89
2019-04-29T18:32:16.320Z,9.96
2019-04-29T18:34:46.773Z,9.90
2019-04-29T18:37:17.150Z,9.91
2019-04-29T18:39:47.574Z,9.98
2019-04-29T18:42:18.067Z,9.95
2019-04-29T18:48:16.928Z,9.97
2019-04-29T18:51:01.750Z,9.93
2019-04-29T18:53:51.608Z,9.87
2019-04-29T18:56:41.210Z,9.87
2019-04-29T19:02:01.007Z,9.91
2019-04-29T19:05:02.759Z,9.97
2019-04-29T19:11:12.663Z,9.83
2019-04-29T19:13:47.511Z,9.82
2019-04-29T19:16:42.116Z,9.84
2019-04-29T19:19:12.546Z,9.86
2019-04-29T19:21:43.074Z,9.84
2019-04-29T19:24:13.567Z,9.79
2019-04-29T19:26:44.892Z,9.79
2019-04-29T19:29:26.965Z,9.76
2019-04-29T19:31:57.445Z,9.75
2019-04-29T19:34:39.416Z,9.84
2019-04-29T19:37:11.002Z,9.76
2019-04-29T19:39:41.594Z,9.71
2019-04-29T19:42:12.069Z,9.68
2019-04-29T19:44:42.489Z,9.74
2019-04-29T19:47:15.251Z,9.74
2019-04-29T19:49:57.022Z,9.68
2019-04-29T19:52:31.734Z,9.64
2019-04-29T19:55:18.879Z,9.62
2019-04-29T19:57:52.279Z,9.64
2019-04-29T20:00:41.343Z,9.57
2019-04-29T20:03:23.882Z,9.59
2019-04-29T20:08:54.824Z,9.63
2019-04-29T20:11:33.761Z,9.72
2019-04-29T20:14:18.418Z,9.70
2019-04-29T20:17:13.929Z,9.63
2019-04-29T20:20:07.442Z,9.66
2019-04-29T20:22:43.447Z,9.61
2019-04-29T20:28:51.146Z,9.66
2019-04-29T20:34:08.096Z,9.64
2019-04-29T20:36:42.772Z,9.63
2019-04-29T20:39:23.545Z,9.63
2019-04-29T20:42:10.322Z,9.63
2019-04-29T20:44:49.925Z,9.67
2019-04-29T20:47:23.572Z,9.60
2019-04-29T20:50:13.973Z,9.69
2019-04-29T20:53:30.847Z,9.67
2019-04-29T20:56:10.275Z,9.68
2019-04-29T20:58:52.890Z,9.73
2019-04-29T21:04:31.255Z,9.67
2019-04-29T21:07:06.873Z,9.74
2019-04-29T21:09:51.652Z,9.74
2019-04-29T21:12:40.955Z,9.70
2019-04-29T21:18:00.355Z,9.62
2019-04-29T21:20:30.730Z,9.64
2019-04-29T21:23:20.497Z,9.63
2019-04-29T21:25:50.934Z,9.53
2019-04-29T21:28:41.452Z,9.48
2019-04-29T21:31:25.328Z,9.48
2019-04-29T21:34:06.300Z,9.52
2019-04-29T21:42:58.264Z,9.41
2019-04-29T21:45:28.667Z,9.47
2019-04-29T21:47:59.063Z,9.47
2019-04-29T21:50:37.106Z,9.40
2019-04-29T21:53:12.557Z,9.38
2019-04-29T21:55:42.975Z,9.42
2019-04-29T21:58:13.372Z,9.36
2019-04-29T22:00:45.493Z,9.33
2019-04-29T22:03:35.459Z,9.34
2019-04-29T22:06:29.134Z,9.25
2019-04-29T22:09:08.586Z,9.25
2019-04-29T22:11:58.351Z,9.26
2019-04-29T22:14:28.738Z,9.21
2019-04-29T22:16:59.071Z,9.20
2019-04-29T22:19:48.816Z,9.25
2019-04-29T22:22:19.219Z,9.23
2019-04-29T22:24:51.355Z,9.25
2019-04-29T22:27:28.006Z,9.24
2019-04-29T22:29:58.400Z,9.21
2019-04-29T22:32:28.767Z,9.18
2019-04-29T22:37:42.637Z,9.12
2019-04-29T22:40:13.022Z,9.07
2019-04-29T22:45:42.128Z,9.11
2019-04-29T22:48:18.969Z,9.12
2019-04-29T22:50:56.882Z,9.13
2019-04-29T22:53:27.298Z,9.12
2019-04-29T22:56:17.094Z,9.08
2019-04-29T22:58:47.575Z,9.10
2019-04-29T23:01:18.003Z,9.14
2019-04-29T23:04:09.577Z,9.15
2019-04-29T23:06:51.275Z,9.10
2019-04-29T23:09:21.696Z,9.15
2019-04-29T23:11:52.088Z,9.16
2019-04-29T23:14:22.450Z,9.10
2019-04-29T23:16:52.832Z,9.15
2019-04-29T23:22:45.520Z,9.12
2019-04-29T23:25:30.009Z,9.16
2019-04-29T23:28:00.468Z,9.11
2019-04-29T23:30:30.827Z,9.04
2019-04-29T23:33:22.869Z,9.09
2019-04-29T23:36:14.180Z,9.15
2019-04-29T23:38:56.588Z,9.11
2019-04-29T23:41:37.953Z,9.04
2019-04-29T23:44:08.933Z,9.08
2019-04-29T23:46:59.788Z,9.09
2019-04-29T23:49:30.228Z,9.01
2019-04-29T23:52:19.990Z,9.02
2019-04-29T23:54:50.413Z,9.11
2019-04-29T23:57:39.714Z,9.10
